sensor_id;sensor_type;location;lat;lon;timestamp;P1;durP1;ratioP1;P2;durP2;ratioP2
6823;SDS011;58633;49.470;11.004;2022-12-07T00:02:07;5.77;;;4.87;;
6823;SDS011;58633;49.470;11.004;2022-12-07T00:04:33;7.00;;;5.50;;
6823;SDS011;58633;49.470;11.004;2022-12-07T00:06:59;7.80;;;6.00;;
6823;SDS011;58633;49.470;11.004;2022-12-07T00:09:25;6.80;;;5.57;;
6823;SDS011;58633;49.470;11.004;2022-12-07T00:11:51;6.93;;;5.87;;
6823;SDS011;58633;49.470;11.004;2022-12-07T00:14:17;6.47;;;5.10;;
6823;SDS011;58633;49.470;11.004;2022-12-07T00:16:43;7.10;;;5.80;;
6823;SDS011;58633;49.470;11.004;2022-12-07T00:19:10;8.37;;;5.87;;
6823;SDS011;58633;49.470;11.004;2022-12-07T00:21:37;7.13;;;5.67;;
6823;SDS011;58633;49.470;11.004;2022-12-07T00:24:04;7.90;;;5.40;;
6823;SDS011;58633;49.470;11.004;2022-12-07T00:26:37;6.87;;;5.53;;
6823;SDS011;58633;49.470;11.004;2022-12-07T00:29:05;8.83;;;6.07;;
6823;SDS011;58633;49.470;11.004;2022-12-07T00:31:33;7.47;;;5.80;;
6823;SDS011;58633;49.470;11.004;2022-12-07T00:34:03;7.57;;;5.83;;
6823;SDS011;58633;49.470;11.004;2022-12-07T00:36:29;8.90;;;6.60;;
6823;SDS011;58633;49.470;11.004;2022-12-07T00:38:57;9.13;;;6.47;;
6823;SDS011;58633;49.470;11.004;2022-12-07T00:41:24;9.27;;;6.50;;
6823;SDS011;58633;49.470;11.004;2022-12-07T00:43:50;9.53;;;6.63;;
6823;SDS011;58633;49.470;11.004;2022-12-07T00:46:16;10.70;;;6.90;;
6823;SDS011;58633;49.470;11.004;2022-12-07T00:48:43;9.20;;;6.50;;
6823;SDS011;58633;49.470;11.004;2022-12-07T00:51:09;8.50;;;6.50;;
6823;SDS011;58633;49.470;11.004;2022-12-07T00:53:37;7.73;;;6.13;;
6823;SDS011;58633;49.470;11.004;2022-12-07T00:56:11;8.20;;;6.20;;
6823;SDS011;58633;49.470;11.004;2022-12-07T00:58:39;8.40;;;6.57;;
6823;SDS011;58633;49.470;11.004;2022-12-07T01:01:05;8.93;;;6.73;;
6823;SDS011;58633;49.470;11.004;2022-12-07T01:03:32;7.83;;;6.37;;
6823;SDS011;58633;49.470;11.004;2022-12-07T01:05:58;7.73;;;5.80;;
6823;SDS011;58633;49.470;11.004;2022-12-07T01:08:25;8.40;;;5.80;;
6823;SDS011;58633;49.470;11.004;2022-12-07T01:10:58;9.33;;;6.83;;
6823;SDS011;58633;49.470;11.004;2022-12-07T01:13:26;8.77;;;6.23;;
6823;SDS011;58633;49.470;11.004;2022-12-07T01:15:55;9.03;;;6.20;;
6823;SDS011;58633;49.470;11.004;2022-12-07T01:18:22;9.27;;;6.80;;
6823;SDS011;58633;49.470;11.004;2022-12-07T01:20:56;9.13;;;6.33;;
6823;SDS011;58633;49.470;11.004;2022-12-07T01:23:23;10.03;;;6.77;;
6823;SDS011;58633;49.470;11.004;2022-12-07T01:25:59;9.23;;;5.93;;
6823;SDS011;58633;49.470;11.004;2022-12-07T01:28:27;9.87;;;7.00;;
6823;SDS011;58633;49.470;11.004;2022-12-07T01:30:56;8.63;;;6.70;;
6823;SDS011;58633;49.470;11.004;2022-12-07T01:33:36;9.27;;;7.10;;
6823;SDS011;58633;49.470;11.004;2022-12-07T01:36:04;8.87;;;7.00;;
6823;SDS011;58633;49.470;11.004;2022-12-07T01:38:31;9.87;;;6.63;;
6823;SDS011;58633;49.470;11.004;2022-12-07T01:40:58;10.13;;;7.27;;
6823;SDS011;58633;49.470;11.004;2022-12-07T01:43:25;9.93;;;6.97;;
6823;SDS011;58633;49.470;11.004;2022-12-07T01:45:52;10.53;;;6.67;;
6823;SDS011;58633;49.470;11.004;2022-12-07T01:48:18;10.03;;;7.17;;
6823;SDS011;58633;49.470;11.004;2022-12-07T01:51:11;9.70;;;6.73;;
6823;SDS011;58633;49.470;11.004;2022-12-07T01:53:40;9.00;;;6.60;;
6823;SDS011;58633;49.470;11.004;2022-12-07T01:56:07;10.33;;;7.50;;
6823;SDS011;58633;49.470;11.004;2022-12-07T01:58:35;8.63;;;6.90;;
6823;SDS011;58633;49.470;11.004;2022-12-07T02:01:02;9.33;;;6.70;;
6823;SDS011;58633;49.470;11.004;2022-12-07T02:03:38;10.50;;;6.87;;
6823;SDS011;58633;49.470;11.004;2022-12-07T02:06:06;10.40;;;7.60;;
6823;SDS011;58633;49.470;11.004;2022-12-07T02:08:32;11.27;;;7.70;;
6823;SDS011;58633;49.470;11.004;2022-12-07T02:10:59;11.07;;;7.63;;
6823;SDS011;58633;49.470;11.004;2022-12-07T02:13:26;10.40;;;6.90;;
6823;SDS011;58633;49.470;11.004;2022-12-07T02:16:16;10.93;;;7.60;;
6823;SDS011;58633;49.470;11.004;2022-12-07T02:18:55;11.13;;;7.03;;
6823;SDS011;58633;49.470;11.004;2022-12-07T02:35:03;11.30;;;7.83;;
6823;SDS011;58633;49.470;11.004;2022-12-07T02:40:12;10.43;;;7.17;;
6823;SDS011;58633;49.470;11.004;2022-12-07T02:43:07;12.10;;;8.03;;
6823;SDS011;58633;49.470;11.004;2022-12-07T02:45:34;11.37;;;7.80;;
6823;SDS011;58633;49.470;11.004;2022-12-07T02:48:02;13.73;;;8.67;;
6823;SDS011;58633;49.470;11.004;2022-12-07T02:50:31;12.40;;;8.10;;
6823;SDS011;58633;49.470;11.004;2022-12-07T02:52:57;11.33;;;8.07;;
6823;SDS011;58633;49.470;11.004;2022-12-07T02:55:28;11.60;;;7.73;;
6823;SDS011;58633;49.470;11.004;2022-12-07T03:00:23;12.83;;;8.40;;
6823;SDS011;58633;49.470;11.004;2022-12-07T03:11:07;13.90;;;8.40;;
6823;SDS011;58633;49.470;11.004;2022-12-07T03:13:54;13.70;;;8.70;;
6823;SDS011;58633;49.470;11.004;2022-12-07T03:16:33;12.63;;;8.30;;
6823;SDS011;58633;49.470;11.004;2022-12-07T03:19:05;13.33;;;8.10;;
6823;SDS011;58633;49.470;11.004;2022-12-07T03:21:37;12.03;;;7.93;;
6823;SDS011;58633;49.470;11.004;2022-12-07T03:24:07;12.70;;;8.17;;
6823;SDS011;58633;49.470;11.004;2022-12-07T03:26:38;13.23;;;8.07;;
6823;SDS011;58633;49.470;11.004;2022-12-07T03:29:08;13.33;;;7.17;;
6823;SDS011;58633;49.470;11.004;2022-12-07T03:31:46;14.60;;;8.70;;
6823;SDS011;58633;49.470;11.004;2022-12-07T03:36:44;12.50;;;8.23;;
6823;SDS011;58633;49.470;11.004;2022-12-07T03:39:16;12.83;;;8.37;;
6823;SDS011;58633;49.470;11.004;2022-12-07T03:41:52;12.63;;;7.90;;
6823;SDS011;58633;49.470;11.004;2022-12-07T03:44:20;16.87;;;8.63;;
6823;SDS011;58633;49.470;11.004;2022-12-07T03:46:50;11.53;;;7.67;;
6823;SDS011;58633;49.470;11.004;2022-12-07T03:49:31;12.33;;;8.40;;
6823;SDS011;58633;49.470;11.004;2022-12-07T03:52:16;12.83;;;8.87;;
6823;SDS011;58633;49.470;11.004;2022-12-07T03:55:27;13.83;;;8.40;;
6823;SDS011;58633;49.470;11.004;2022-12-07T03:57:57;12.70;;;8.37;;
6823;SDS011;58633;49.470;11.004;2022-12-07T04:00:26;12.23;;;8.27;;
6823;SDS011;58633;49.470;11.004;2022-12-07T04:02:52;13.10;;;8.73;;
6823;SDS011;58633;49.470;11.004;2022-12-07T04:05:18;13.63;;;8.73;;
6823;SDS011;58633;49.470;11.004;2022-12-07T04:07:44;12.00;;;8.17;;
6823;SDS011;58633;49.470;11.004;2022-12-07T04:10:10;16.00;;;8.33;;
6823;SDS011;58633;49.470;11.004;2022-12-07T04:12:37;13.40;;;8.27;;
6823;SDS011;58633;49.470;11.004;2022-12-07T04:15:03;12.40;;;8.13;;
6823;SDS011;58633;49.470;11.004;2022-12-07T04:17:29;13.83;;;8.77;;
6823;SDS011;58633;49.470;11.004;2022-12-07T04:19:55;14.17;;;9.53;;
6823;SDS011;58633;49.470;11.004;2022-12-07T04:22:20;15.00;;;9.13;;
6823;SDS011;58633;49.470;11.004;2022-12-07T04:24:46;11.63;;;8.40;;
6823;SDS011;58633;49.470;11.004;2022-12-07T04:27:12;15.67;;;9.30;;
6823;SDS011;58633;49.470;11.004;2022-12-07T04:29:38;14.03;;;8.47;;
6823;SDS011;58633;49.470;11.004;2022-12-07T04:32:04;13.63;;;8.63;;
6823;SDS011;58633;49.470;11.004;2022-12-07T04:34:30;14.10;;;9.03;;
6823;SDS011;58633;49.470;11.004;2022-12-07T04:36:56;13.53;;;9.13;;
6823;SDS011;58633;49.470;11.004;2022-12-07T04:39:27;14.80;;;8.80;;
6823;SDS011;58633;49.470;11.004;2022-12-07T04:41:53;13.73;;;9.10;;
6823;SDS011;58633;49.470;11.004;2022-12-07T04:44:20;13.47;;;8.97;;
6823;SDS011;58633;49.470;11.004;2022-12-07T04:46:46;14.20;;;8.80;;
6823;SDS011;58633;49.470;11.004;2022-12-07T04:49:12;14.50;;;9.10;;
6823;SDS011;58633;49.470;11.004;2022-12-07T04:51:39;15.77;;;9.03;;
6823;SDS011;58633;49.470;11.004;2022-12-07T04:54:05;14.33;;;9.47;;
6823;SDS011;58633;49.470;11.004;2022-12-07T04:56:31;14.97;;;8.73;;
6823;SDS011;58633;49.470;11.004;2022-12-07T04:58:57;14.20;;;9.30;;
6823;SDS011;58633;49.470;11.004;2022-12-07T05:01:23;14.73;;;9.30;;
6823;SDS011;58633;49.470;11.004;2022-12-07T05:03:49;15.40;;;8.80;;
6823;SDS011;58633;49.470;11.004;2022-12-07T05:06:15;14.83;;;8.17;;
6823;SDS011;58633;49.470;11.004;2022-12-07T05:08:41;13.83;;;8.60;;
6823;SDS011;58633;49.470;11.004;2022-12-07T05:11:08;14.83;;;9.13;;
6823;SDS011;58633;49.470;11.004;2022-12-07T05:13:34;16.03;;;9.80;;
6823;SDS011;58633;49.470;11.004;2022-12-07T05:16:00;15.47;;;9.67;;
6823;SDS011;58633;49.470;11.004;2022-12-07T05:18:26;17.20;;;9.80;;
6823;SDS011;58633;49.470;11.004;2022-12-07T05:20:52;15.53;;;9.77;;
6823;SDS011;58633;49.470;11.004;2022-12-07T05:23:18;16.80;;;8.73;;
6823;SDS011;58633;49.470;11.004;2022-12-07T05:25:44;16.37;;;10.00;;
6823;SDS011;58633;49.470;11.004;2022-12-07T05:28:10;16.53;;;9.80;;
6823;SDS011;58633;49.470;11.004;2022-12-07T05:30:36;17.37;;;10.17;;
6823;SDS011;58633;49.470;11.004;2022-12-07T05:33:03;16.50;;;9.83;;
6823;SDS011;58633;49.470;11.004;2022-12-07T05:35:30;17.57;;;10.10;;
6823;SDS011;58633;49.470;11.004;2022-12-07T05:37:56;20.07;;;10.93;;
6823;SDS011;58633;49.470;11.004;2022-12-07T05:40:23;17.37;;;9.80;;
6823;SDS011;58633;49.470;11.004;2022-12-07T05:42:49;16.30;;;10.07;;
6823;SDS011;58633;49.470;11.004;2022-12-07T05:45:15;16.40;;;9.50;;
6823;SDS011;58633;49.470;11.004;2022-12-07T05:47:41;17.73;;;9.70;;
6823;SDS011;58633;49.470;11.004;2022-12-07T05:50:06;16.83;;;10.03;;
6823;SDS011;58633;49.470;11.004;2022-12-07T05:52:32;18.63;;;11.03;;
6823;SDS011;58633;49.470;11.004;2022-12-07T05:54:58;18.70;;;10.93;;
6823;SDS011;58633;49.470;11.004;2022-12-07T05:57:24;17.10;;;10.20;;
6823;SDS011;58633;49.470;11.004;2022-12-07T05:59:50;16.70;;;10.43;;
6823;SDS011;58633;49.470;11.004;2022-12-07T06:02:15;19.13;;;10.60;;
6823;SDS011;58633;49.470;11.004;2022-12-07T06:04:42;16.90;;;10.63;;
6823;SDS011;58633;49.470;11.004;2022-12-07T06:07:09;16.67;;;9.97;;
6823;SDS011;58633;49.470;11.004;2022-12-07T06:09:37;17.43;;;10.50;;
6823;SDS011;58633;49.470;11.004;2022-12-07T06:12:03;16.77;;;10.03;;
6823;SDS011;58633;49.470;11.004;2022-12-07T06:14:48;17.87;;;10.37;;
6823;SDS011;58633;49.470;11.004;2022-12-07T06:17:13;18.30;;;10.87;;
6823;SDS011;58633;49.470;11.004;2022-12-07T06:19:40;18.63;;;10.30;;
6823;SDS011;58633;49.470;11.004;2022-12-07T06:22:06;19.63;;;10.60;;
6823;SDS011;58633;49.470;11.004;2022-12-07T06:24:33;17.53;;;10.27;;
6823;SDS011;58633;49.470;11.004;2022-12-07T06:26:59;17.83;;;10.67;;
6823;SDS011;58633;49.470;11.004;2022-12-07T06:29:25;20.73;;;11.07;;
6823;SDS011;58633;49.470;11.004;2022-12-07T06:31:51;19.80;;;11.00;;
6823;SDS011;58633;49.470;11.004;2022-12-07T06:34:18;21.03;;;11.50;;
6823;SDS011;58633;49.470;11.004;2022-12-07T06:36:45;18.33;;;10.87;;
6823;SDS011;58633;49.470;11.004;2022-12-07T06:39:16;19.00;;;11.27;;
6823;SDS011;58633;49.470;11.004;2022-12-07T06:41:42;19.23;;;11.03;;
6823;SDS011;58633;49.470;11.004;2022-12-07T06:44:08;18.50;;;10.90;;
6823;SDS011;58633;49.470;11.004;2022-12-07T06:46:33;16.40;;;10.83;;
6823;SDS011;58633;49.470;11.004;2022-12-07T06:49:00;19.13;;;11.17;;
6823;SDS011;58633;49.470;11.004;2022-12-07T06:51:26;17.50;;;10.40;;
6823;SDS011;58633;49.470;11.004;2022-12-07T06:53:52;17.10;;;10.10;;
6823;SDS011;58633;49.470;11.004;2022-12-07T06:56:18;19.93;;;10.77;;
6823;SDS011;58633;49.470;11.004;2022-12-07T06:58:44;18.80;;;10.93;;
6823;SDS011;58633;49.470;11.004;2022-12-07T07:01:11;19.33;;;11.03;;
6823;SDS011;58633;49.470;11.004;2022-12-07T07:03:38;19.90;;;10.50;;
6823;SDS011;58633;49.470;11.004;2022-12-07T07:06:04;18.37;;;11.33;;
6823;SDS011;58633;49.470;11.004;2022-12-07T07:08:30;20.73;;;10.60;;
6823;SDS011;58633;49.470;11.004;2022-12-07T07:10:56;17.83;;;9.83;;
6823;SDS011;58633;49.470;11.004;2022-12-07T07:13:22;15.77;;;9.37;;
6823;SDS011;58633;49.470;11.004;2022-12-07T07:15:48;18.80;;;10.27;;
6823;SDS011;58633;49.470;11.004;2022-12-07T07:18:13;17.30;;;10.20;;
6823;SDS011;58633;49.470;11.004;2022-12-07T07:20:39;17.00;;;9.83;;
6823;SDS011;58633;49.470;11.004;2022-12-07T07:23:05;15.83;;;9.43;;
6823;SDS011;58633;49.470;11.004;2022-12-07T07:25:31;17.37;;;10.20;;
6823;SDS011;58633;49.470;11.004;2022-12-07T07:27:57;17.57;;;10.00;;
6823;SDS011;58633;49.470;11.004;2022-12-07T07:30:23;18.33;;;10.13;;
6823;SDS011;58633;49.470;11.004;2022-12-07T07:32:49;15.93;;;9.37;;
6823;SDS011;58633;49.470;11.004;2022-12-07T07:35:15;18.43;;;10.40;;
6823;SDS011;58633;49.470;11.004;2022-12-07T07:37:41;19.27;;;10.47;;
6823;SDS011;58633;49.470;11.004;2022-12-07T07:40:07;19.20;;;10.60;;
6823;SDS011;58633;49.470;11.004;2022-12-07T07:42:34;19.63;;;10.73;;
6823;SDS011;58633;49.470;11.004;2022-12-07T07:45:00;19.17;;;11.10;;
6823;SDS011;58633;49.470;11.004;2022-12-07T07:47:26;19.40;;;10.83;;
6823;SDS011;58633;49.470;11.004;2022-12-07T07:49:51;18.77;;;11.37;;
6823;SDS011;58633;49.470;11.004;2022-12-07T07:52:17;16.73;;;10.40;;
6823;SDS011;58633;49.470;11.004;2022-12-07T07:54:43;27.37;;;11.50;;
6823;SDS011;58633;49.470;11.004;2022-12-07T07:57:09;18.80;;;10.33;;
6823;SDS011;58633;49.470;11.004;2022-12-07T07:59:34;18.70;;;10.63;;
6823;SDS011;58633;49.470;11.004;2022-12-07T08:02:00;18.47;;;10.93;;
6823;SDS011;58633;49.470;11.004;2022-12-07T08:04:26;22.70;;;11.10;;
6823;SDS011;58633;49.470;11.004;2022-12-07T08:06:51;20.67;;;11.17;;
6823;SDS011;58633;49.470;11.004;2022-12-07T08:09:17;18.00;;;10.90;;
6823;SDS011;58633;49.470;11.004;2022-12-07T08:11:43;17.57;;;9.70;;
6823;SDS011;58633;49.470;11.004;2022-12-07T08:14:10;19.83;;;11.10;;
6823;SDS011;58633;49.470;11.004;2022-12-07T08:16:37;18.33;;;10.03;;
6823;SDS011;58633;49.470;11.004;2022-12-07T08:19:04;19.37;;;10.90;;
6823;SDS011;58633;49.470;11.004;2022-12-07T08:21:30;16.57;;;10.00;;
6823;SDS011;58633;49.470;11.004;2022-12-07T08:23:56;18.17;;;10.27;;
6823;SDS011;58633;49.470;11.004;2022-12-07T08:26:22;18.07;;;9.57;;
6823;SDS011;58633;49.470;11.004;2022-12-07T08:28:48;14.53;;;8.97;;
6823;SDS011;58633;49.470;11.004;2022-12-07T08:31:15;15.73;;;9.50;;
6823;SDS011;58633;49.470;11.004;2022-12-07T08:33:43;16.53;;;9.33;;
6823;SDS011;58633;49.470;11.004;2022-12-07T08:36:12;16.00;;;9.50;;
6823;SDS011;58633;49.470;11.004;2022-12-07T08:38:38;17.90;;;9.60;;
6823;SDS011;58633;49.470;11.004;2022-12-07T08:41:05;15.20;;;8.87;;
6823;SDS011;58633;49.470;11.004;2022-12-07T08:43:31;16.67;;;9.60;;
6823;SDS011;58633;49.470;11.004;2022-12-07T08:48:36;15.87;;;8.83;;
6823;SDS011;58633;49.470;11.004;2022-12-07T08:51:08;16.17;;;8.67;;
6823;SDS011;58633;49.470;11.004;2022-12-07T08:53:34;14.23;;;8.07;;
6823;SDS011;58633;49.470;11.004;2022-12-07T08:56:01;14.07;;;8.63;;
6823;SDS011;58633;49.470;11.004;2022-12-07T08:58:27;14.43;;;8.57;;
6823;SDS011;58633;49.470;11.004;2022-12-07T09:00:53;17.03;;;9.20;;
6823;SDS011;58633;49.470;11.004;2022-12-07T09:03:19;14.17;;;8.40;;
6823;SDS011;58633;49.470;11.004;2022-12-07T09:05:44;14.20;;;8.13;;
6823;SDS011;58633;49.470;11.004;2022-12-07T09:08:10;15.27;;;8.63;;
6823;SDS011;58633;49.470;11.004;2022-12-07T09:10:36;13.67;;;8.27;;
6823;SDS011;58633;49.470;11.004;2022-12-07T09:13:02;15.57;;;9.07;;
6823;SDS011;58633;49.470;11.004;2022-12-07T09:15:28;14.47;;;7.90;;
6823;SDS011;58633;49.470;11.004;2022-12-07T09:17:55;13.37;;;8.47;;
6823;SDS011;58633;49.470;11.004;2022-12-07T09:20:21;14.20;;;8.47;;
6823;SDS011;58633;49.470;11.004;2022-12-07T09:22:47;13.20;;;8.03;;
6823;SDS011;58633;49.470;11.004;2022-12-07T09:25:13;13.63;;;8.13;;
6823;SDS011;58633;49.470;11.004;2022-12-07T09:27:39;13.93;;;8.17;;
6823;SDS011;58633;49.470;11.004;2022-12-07T09:30:05;16.67;;;8.97;;
6823;SDS011;58633;49.470;11.004;2022-12-07T09:32:31;13.00;;;7.63;;
6823;SDS011;58633;49.470;11.004;2022-12-07T09:34:57;16.13;;;9.20;;
6823;SDS011;58633;49.470;11.004;2022-12-07T09:37:23;13.90;;;8.07;;
6823;SDS011;58633;49.470;11.004;2022-12-07T09:39:49;12.73;;;7.83;;
6823;SDS011;58633;49.470;11.004;2022-12-07T09:42:36;15.27;;;8.70;;
6823;SDS011;58633;49.470;11.004;2022-12-07T09:45:02;13.63;;;7.87;;
6823;SDS011;58633;49.470;11.004;2022-12-07T09:47:31;11.90;;;8.03;;
6823;SDS011;58633;49.470;11.004;2022-12-07T09:50:00;12.53;;;7.77;;
6823;SDS011;58633;49.470;11.004;2022-12-07T09:52:29;11.83;;;8.03;;
6823;SDS011;58633;49.470;11.004;2022-12-07T09:54:55;13.00;;;8.37;;
6823;SDS011;58633;49.470;11.004;2022-12-07T09:57:25;13.53;;;8.00;;
6823;SDS011;58633;49.470;11.004;2022-12-07T09:59:56;13.73;;;8.20;;
6823;SDS011;58633;49.470;11.004;2022-12-07T10:02:38;12.13;;;7.87;;
6823;SDS011;58633;49.470;11.004;2022-12-07T10:05:12;12.17;;;7.77;;
6823;SDS011;58633;49.470;11.004;2022-12-07T10:07:40;13.07;;;8.53;;
6823;SDS011;58633;49.470;11.004;2022-12-07T10:10:10;11.47;;;7.60;;
6823;SDS011;58633;49.470;11.004;2022-12-07T10:12:55;12.77;;;7.47;;
6823;SDS011;58633;49.470;11.004;2022-12-07T10:15:41;12.77;;;7.83;;
6823;SDS011;58633;49.470;11.004;2022-12-07T10:21:00;12.50;;;8.33;;
6823;SDS011;58633;49.470;11.004;2022-12-07T10:23:28;12.57;;;7.73;;
6823;SDS011;58633;49.470;11.004;2022-12-07T10:25:53;13.50;;;8.40;;
6823;SDS011;58633;49.470;11.004;2022-12-07T10:28:20;14.00;;;8.17;;
6823;SDS011;58633;49.470;11.004;2022-12-07T10:33:37;12.57;;;8.10;;
6823;SDS011;58633;49.470;11.004;2022-12-07T10:36:20;13.00;;;8.20;;
6823;SDS011;58633;49.470;11.004;2022-12-07T10:39:12;12.97;;;7.67;;
6823;SDS011;58633;49.470;11.004;2022-12-07T10:41:51;12.43;;;7.67;;
6823;SDS011;58633;49.470;11.004;2022-12-07T10:44:25;10.43;;;7.13;;
6823;SDS011;58633;49.470;11.004;2022-12-07T11:00:43;13.27;;;7.83;;
6823;SDS011;58633;49.470;11.004;2022-12-07T11:03:29;12.40;;;7.93;;
6823;SDS011;58633;49.470;11.004;2022-12-07T11:12:25;12.30;;;7.60;;
6823;SDS011;58633;49.470;11.004;2022-12-07T11:15:13;32.07;;;15.10;;
6823;SDS011;58633;49.470;11.004;2022-12-07T11:21:00;11.97;;;8.20;;
6823;SDS011;58633;49.470;11.004;2022-12-07T11:23:49;11.33;;;7.67;;
6823;SDS011;58633;49.470;11.004;2022-12-07T11:29:09;14.53;;;8.13;;
6823;SDS011;58633;49.470;11.004;2022-12-07T11:35:17;12.57;;;7.70;;
6823;SDS011;58633;49.470;11.004;2022-12-07T11:37:47;14.60;;;8.73;;
6823;SDS011;58633;49.470;11.004;2022-12-07T11:40:26;11.13;;;7.93;;
6823;SDS011;58633;49.470;11.004;2022-12-07T11:42:58;14.13;;;7.93;;
6823;SDS011;58633;49.470;11.004;2022-12-07T11:45:34;14.00;;;8.70;;
6823;SDS011;58633;49.470;11.004;2022-12-07T11:48:10;12.87;;;8.07;;
6823;SDS011;58633;49.470;11.004;2022-12-07T11:50:47;14.70;;;8.33;;
6823;SDS011;58633;49.470;11.004;2022-12-07T11:53:36;13.33;;;8.07;;
6823;SDS011;58633;49.470;11.004;2022-12-07T11:56:24;13.00;;;7.97;;
6823;SDS011;58633;49.470;11.004;2022-12-07T12:03:58;14.47;;;8.50;;
6823;SDS011;58633;49.470;11.004;2022-12-07T12:06:26;15.37;;;9.23;;
6823;SDS011;58633;49.470;11.004;2022-12-07T12:08:58;12.27;;;8.13;;
6823;SDS011;58633;49.470;11.004;2022-12-07T12:11:43;13.57;;;8.17;;
6823;SDS011;58633;49.470;11.004;2022-12-07T12:19:42;17.40;;;8.97;;
6823;SDS011;58633;49.470;11.004;2022-12-07T12:24:35;14.20;;;8.50;;
6823;SDS011;58633;49.470;11.004;2022-12-07T12:27:06;12.90;;;8.07;;
6823;SDS011;58633;49.470;11.004;2022-12-07T12:29:36;11.00;;;8.07;;
6823;SDS011;58633;49.470;11.004;2022-12-07T12:32:05;12.53;;;8.13;;
6823;SDS011;58633;49.470;11.004;2022-12-07T12:34:59;11.40;;;7.77;;
6823;SDS011;58633;49.470;11.004;2022-12-07T12:40:37;13.37;;;8.27;;
6823;SDS011;58633;49.470;11.004;2022-12-07T12:42:57;13.47;;;7.83;;
6823;SDS011;58633;49.470;11.004;2022-12-07T12:45:24;13.47;;;8.17;;
6823;SDS011;58633;49.470;11.004;2022-12-07T12:48:02;13.13;;;8.03;;
6823;SDS011;58633;49.470;11.004;2022-12-07T12:53:15;15.97;;;8.27;;
6823;SDS011;58633;49.470;11.004;2022-12-07T12:58:38;13.13;;;8.33;;
6823;SDS011;58633;49.470;11.004;2022-12-07T13:01:31;14.23;;;8.17;;
6823;SDS011;58633;49.470;11.004;2022-12-07T13:03:58;13.80;;;7.93;;
6823;SDS011;58633;49.470;11.004;2022-12-07T13:08:50;13.00;;;8.37;;
6823;SDS011;58633;49.470;11.004;2022-12-07T13:11:41;12.20;;;7.53;;
6823;SDS011;58633;49.470;11.004;2022-12-07T13:17:10;10.37;;;7.43;;
6823;SDS011;58633;49.470;11.004;2022-12-07T13:27:43;11.27;;;7.07;;
6823;SDS011;58633;49.470;11.004;2022-12-07T13:30:17;11.37;;;7.03;;
6823;SDS011;58633;49.470;11.004;2022-12-07T13:32:50;10.83;;;7.13;;
6823;SDS011;58633;49.470;11.004;2022-12-07T13:35:31;10.83;;;7.20;;
6823;SDS011;58633;49.470;11.004;2022-12-07T13:38:13;10.77;;;7.30;;
6823;SDS011;58633;49.470;11.004;2022-12-07T13:41:11;11.67;;;7.47;;
6823;SDS011;58633;49.470;11.004;2022-12-07T13:43:43;9.67;;;7.10;;
6823;SDS011;58633;49.470;11.004;2022-12-07T13:46:11;11.23;;;7.27;;
6823;SDS011;58633;49.470;11.004;2022-12-07T13:48:46;9.03;;;6.43;;
6823;SDS011;58633;49.470;11.004;2022-12-07T13:51:23;11.60;;;6.73;;
6823;SDS011;58633;49.470;11.004;2022-12-07T13:54:00;9.57;;;6.50;;
6823;SDS011;58633;49.470;11.004;2022-12-07T13:56:34;10.43;;;7.23;;
6823;SDS011;58633;49.470;11.004;2022-12-07T13:59:00;12.03;;;7.53;;
6823;SDS011;58633;49.470;11.004;2022-12-07T14:01:26;13.70;;;7.27;;
6823;SDS011;58633;49.470;11.004;2022-12-07T14:03:52;12.90;;;8.13;;
6823;SDS011;58633;49.470;11.004;2022-12-07T14:06:23;13.67;;;7.90;;
6823;SDS011;58633;49.470;11.004;2022-12-07T14:08:50;14.17;;;7.23;;
6823;SDS011;58633;49.470;11.004;2022-12-07T14:11:19;12.60;;;7.87;;
6823;SDS011;58633;49.470;11.004;2022-12-07T14:18:41;10.03;;;7.23;;
6823;SDS011;58633;49.470;11.004;2022-12-07T14:23:35;12.50;;;7.37;;
6823;SDS011;58633;49.470;11.004;2022-12-07T14:26:06;9.43;;;6.77;;
6823;SDS011;58633;49.470;11.004;2022-12-07T14:28:36;10.87;;;7.00;;
6823;SDS011;58633;49.470;11.004;2022-12-07T14:31:03;11.53;;;6.93;;
6823;SDS011;58633;49.470;11.004;2022-12-07T14:33:33;11.23;;;7.27;;
6823;SDS011;58633;49.470;11.004;2022-12-07T14:35:59;12.70;;;7.57;;
6823;SDS011;58633;49.470;11.004;2022-12-07T14:38:25;11.17;;;7.73;;
6823;SDS011;58633;49.470;11.004;2022-12-07T14:40:51;10.30;;;6.63;;
6823;SDS011;58633;49.470;11.004;2022-12-07T14:43:18;8.40;;;5.23;;
6823;SDS011;58633;49.470;11.004;2022-12-07T14:45:45;8.73;;;5.10;;
6823;SDS011;58633;49.470;11.004;2022-12-07T14:48:12;9.73;;;6.23;;
6823;SDS011;58633;49.470;11.004;2022-12-07T14:50:46;9.00;;;6.10;;
6823;SDS011;58633;49.470;11.004;2022-12-07T14:53:18;10.70;;;6.27;;
6823;SDS011;58633;49.470;11.004;2022-12-07T14:55:50;9.50;;;6.20;;
6823;SDS011;58633;49.470;11.004;2022-12-07T14:58:16;11.43;;;7.37;;
6823;SDS011;58633;49.470;11.004;2022-12-07T15:00:43;10.07;;;6.70;;
6823;SDS011;58633;49.470;11.004;2022-12-07T15:03:09;12.43;;;7.90;;
6823;SDS011;58633;49.470;11.004;2022-12-07T15:05:35;11.50;;;7.47;;
6823;SDS011;58633;49.470;11.004;2022-12-07T15:08:02;12.03;;;7.90;;
6823;SDS011;58633;49.470;11.004;2022-12-07T15:10:29;15.00;;;8.93;;
6823;SDS011;58633;49.470;11.004;2022-12-07T15:12:58;15.63;;;8.97;;
6823;SDS011;58633;49.470;11.004;2022-12-07T15:15:42;12.67;;;8.53;;
6823;SDS011;58633;49.470;11.004;2022-12-07T15:18:08;12.63;;;7.97;;
6823;SDS011;58633;49.470;11.004;2022-12-07T15:20:34;14.93;;;9.17;;
6823;SDS011;58633;49.470;11.004;2022-12-07T15:23:00;14.43;;;8.33;;
6823;SDS011;58633;49.470;11.004;2022-12-07T15:25:25;15.33;;;9.10;;
6823;SDS011;58633;49.470;11.004;2022-12-07T15:27:51;15.53;;;9.07;;
6823;SDS011;58633;49.470;11.004;2022-12-07T15:30:17;15.47;;;9.03;;
6823;SDS011;58633;49.470;11.004;2022-12-07T15:32:43;12.17;;;8.37;;
6823;SDS011;58633;49.470;11.004;2022-12-07T15:35:09;15.33;;;9.17;;
6823;SDS011;58633;49.470;11.004;2022-12-07T15:37:35;13.67;;;9.00;;
6823;SDS011;58633;49.470;11.004;2022-12-07T15:40:00;12.60;;;8.33;;
6823;SDS011;58633;49.470;11.004;2022-12-07T15:42:26;14.97;;;9.37;;
6823;SDS011;58633;49.470;11.004;2022-12-07T15:44:52;14.50;;;9.17;;
6823;SDS011;58633;49.470;11.004;2022-12-07T15:47:35;14.37;;;8.77;;
6823;SDS011;58633;49.470;11.004;2022-12-07T15:50:05;14.00;;;9.43;;
6823;SDS011;58633;49.470;11.004;2022-12-07T15:52:33;16.30;;;9.40;;
6823;SDS011;58633;49.470;11.004;2022-12-07T15:54:59;15.37;;;9.23;;
6823;SDS011;58633;49.470;11.004;2022-12-07T15:57:27;14.27;;;8.60;;
6823;SDS011;58633;49.470;11.004;2022-12-07T15:59:53;17.10;;;9.53;;
6823;SDS011;58633;49.470;11.004;2022-12-07T16:02:19;15.23;;;8.67;;
6823;SDS011;58633;49.470;11.004;2022-12-07T16:04:45;12.10;;;7.83;;
6823;SDS011;58633;49.470;11.004;2022-12-07T16:07:11;16.30;;;9.67;;
6823;SDS011;58633;49.470;11.004;2022-12-07T16:09:40;16.73;;;10.20;;
6823;SDS011;58633;49.470;11.004;2022-12-07T16:12:06;14.83;;;8.97;;
6823;SDS011;58633;49.470;11.004;2022-12-07T16:14:32;14.60;;;8.70;;
6823;SDS011;58633;49.470;11.004;2022-12-07T16:16:58;14.93;;;8.60;;
6823;SDS011;58633;49.470;11.004;2022-12-07T16:19:24;15.43;;;9.73;;
6823;SDS011;58633;49.470;11.004;2022-12-07T16:21:50;19.07;;;8.73;;
6823;SDS011;58633;49.470;11.004;2022-12-07T16:24:16;14.23;;;8.83;;
6823;SDS011;58633;49.470;11.004;2022-12-07T16:26:43;14.03;;;8.63;;
6823;SDS011;58633;49.470;11.004;2022-12-07T16:29:11;13.73;;;8.30;;
6823;SDS011;58633;49.470;11.004;2022-12-07T16:31:37;16.80;;;8.83;;
6823;SDS011;58633;49.470;11.004;2022-12-07T16:34:03;14.00;;;8.97;;
6823;SDS011;58633;49.470;11.004;2022-12-07T16:36:29;16.07;;;10.10;;